Latest Weather Observations for Pallamana

IDS60801

Issued at 7:21 am CDT Thursday 28 October 2021 (issued every 10 minutes, with the page automatically refreshed every 10 minutes)

About weather observations | Map of weather stations | Latest weather observations for SA | Other Formats
Station Details ID: 024584 Name: PALLAMANA AERODROME Lat: -35.06 Lon: 139.23 Height: 45.0 m
Data from the previous 72 hours. | See also: Recent months at Pallamana
Date/Time
CDT
Temp
°C
App
Temp
°C
Dew
Point
°C
Rel
Hum
%
Delta-T
°C
Wind Press
QNH
hPa
Press
MSL
hPa
Rain since
9am
mm
Dir  Spd
km/h
Gust
km/h
Spd
kts
Gust
kts
28/07:00am 14.4 13.7 14.2 99 0.1 S 11 17 6 9 1008.0 1008.0 0.4
28/06:30am 14.5 14.1 14.0 97 0.3 SSE 9 15 5 8 1008.2 1008.2 0.4
28/06:00am 14.5 14.1 14.2 98 0.2 SSE 9 15 5 8 1008.6 1008.6 0.4
28/05:30am 14.7 13.6 14.2 97 0.3 SE 13 17 7 9 1008.3 1008.3 0.4
28/05:00am 15.0 14.3 14.4 96 0.3 SSE 11 17 6 9 1008.5 1008.5 0.4
28/04:30am 15.1 14.5 14.5 96 0.3 S 11 13 6 7 1009.1 1009.1 0.4
28/04:00am 15.1 14.5 14.5 96 0.3 SSW 11 17 6 9 1009.0 1009.0 0.4
28/03:30am 15.2 13.3 14.2 94 0.6 SSE 17 22 9 12 1009.1 1009.1 0.4
28/03:00am 15.5 13.0 14.2 92 0.7 SSW 20 30 11 16 1008.9 1008.9 0.4
28/02:30am 15.5 13.7 14.4 93 0.6 SSW 17 26 9 14 1009.7 1009.7 0.4
28/02:00am 15.6 13.4 14.3 92 0.7 SSW 19 26 10 14 1010.4 1010.4 0.4
28/01:30am 15.5 14.2 14.9 96 0.3 SSW 15 17 8 9 1010.6 1010.6 0.4
28/01:00am 15.4 13.8 14.9 97 0.3 S 17 26 9 14 1011.1 1011.1 0.4
28/12:30am 15.8 13.9 15.3 97 0.3 SW 19 24 10 13 1011.4 1011.3 0.4
28/12:00am 16.1 14.0 15.3 95 0.5 SSW 20 30 11 16 1011.3 1011.2 0.4
 
Date/Time
CDT
Temp
°C
App
Temp
°C
Dew
Point
°C
Rel
Hum
%
Delta-T
°C
Wind Press
QNH
hPa
Press
MSL
hPa
Rain since
9am
mm
Dir  Spd
km/h
Gust
km/h
Spd
kts
Gust
kts
27/11:30pm 16.4 13.6 15.4 94 0.6 SW 24 32 13 17 1011.3 1011.2 0.4
27/11:00pm 16.3 13.1 15.3 94 0.6 SSW 26 37 14 20 1011.1 1011.1 0.4
27/10:55pm 16.3 13.1 15.3 94 0.6 SSW 26 37 14 20 1011.0 1011.0 0.4
27/10:30pm 16.4 14.8 14.9 91 0.9 SSW 17 24 9 13 1011.1 1011.1 0.4
27/10:00pm 17.4 14.1 14.9 85 1.5 SW 26 37 14 20 1010.8 1010.8 0.4
27/09:30pm 19.4 16.6 12.7 65 3.8 SW 19 35 10 19 1009.9 1009.9 0.4
27/09:00pm 19.9 17.8 8.3 47 6.0 NE 9 11 5 6 1009.3 1009.3 0.4
27/08:30pm 21.8 19.3 8.0 41 7.2 NNE 11 15 6 8 1009.0 1009.0 0.4
27/08:00pm 23.7 19.6 8.6 38 8.1 NNE 20 24 11 13 1008.7 1008.7 0.4
27/07:30pm 24.4 20.6 9.2 38 8.3 NNE 19 26 10 14 1008.5 1008.5 0.4
27/07:00pm 25.4 21.9 10.1 38 8.5 NE 19 24 10 13 1008.2 1008.2 0.4
27/06:30pm 26.6 22.4 9.9 35 9.3 NNE 22 30 12 16 1008.0 1008.0 0.4
27/06:00pm 27.2 22.3 11.3 37 9.1 N 28 35 15 19 1008.0 1008.0 0.4
27/05:30pm 27.2 22.9 10.8 36 9.3 NNE 24 33 13 18 1007.7 1007.7 0.4
27/05:00pm 26.5 21.1 9.4 34 9.4 NNE 28 35 15 19 1007.8 1007.8 0.4
27/04:30pm 27.8 22.8 9.6 32 10.1 NNE 26 35 14 19 1007.8 1007.8 0.4
27/04:00pm 26.7 21.1 10.0 35 9.3 N 30 39 16 21 1008.2 1008.2 0.4
27/03:30pm 26.3 22.6 12.7 43 7.9 N 24 32 13 17 1008.4 1008.4 0.4
27/03:00pm 24.6 22.0 13.8 51 6.4 N 20 32 11 17 1008.9 1008.9 0.4
27/02:30pm 22.9 22.0 12.5 52 5.9 NNE 9 19 5 10 1009.5 1009.5 0.4
27/02:00pm 20.9 20.2 11.3 54 5.3 NNW 6 9 3 5 1010.3 1010.3 0.4
27/01:30pm 19.8 18.1 11.3 58 4.7 WSW 11 15 6 8 1010.3 1010.3 0.4
27/01:00pm 17.7 15.9 13.2 75 2.5 SSE 15 24 8 13 1009.5 1009.5 0.4
27/12:49pm 19.3 17.8 13.0 67 3.6 SW 13 28 7 15 1010.7 1010.7 0.2
27/12:30pm 22.8 16.4 5.3 32 8.8 W 28 39 15 21 1012.8 1012.7 0.0
27/12:01pm 25.4 17.5 -1.4 17 12.1 NW 30 48 16 26 1012.7 1012.6 0.0
27/12:00pm 25.5 17.9 -2.1 16 12.3 NW 28 44 15 24 1012.7 1012.6 0.0
27/11:30am 27.0 20.0 -3.7 13 13.4 NW 24 46 13 25 1011.5 1011.4 0.0
27/11:00am 26.5 19.3 -5.2 12 13.4 N 24 32 13 17 1010.9 1010.9 0.0
27/10:30am 25.4 17.4 -6.0 12 13.0 N 28 39 15 21 1010.6 1010.6 0.0
27/10:00am 25.3 15.9 -6.1 12 12.9 N 35 46 19 25 1010.6 1010.6 0.0
27/09:30am 23.8 14.4 -6.2 13 12.2 NNE 35 46 19 25 1010.2 1010.2 0.0
27/09:00am 21.7 12.6 -6.9 14 11.2 NNE 33 46 18 25 1010.1 1010.1 0.0
27/08:30am 19.2 10.8 -6.4 17 9.9 NNE 30 37 16 20 1010.0 1010.0 0.0
27/08:00am 17.2 10.3 -5.9 20 8.8 NNE 22 30 12 16 1009.9 1009.9 0.0
27/07:30am 15.8 9.6 -5.3 23 8.0 N 19 28 10 15 1010.2 1010.2 0.0
27/07:00am 14.6 7.8 -5.2 25 7.4 NNE 22 28 12 15 1009.8 1009.8 0.0
27/06:30am 11.9 6.5 -4.7 31 6.1 NNE 15 20 8 11 1009.8 1009.8 0.0
27/06:00am 9.6 5.3 -4.7 36 5.1 N 9 11 5 6 1009.8 1009.8 0.0
27/05:30am 10.1 5.4 -4.6 35 5.3 NNW 11 13 6 7 1009.7 1009.7 0.0
27/05:00am 9.0 4.8 -3.5 41 4.6 N 9 11 5 6 1009.8 1009.8 0.0
27/04:30am 6.2 2.1 -2.9 52 3.3 N 9 13 5 7 1009.4 1009.4 0.0
27/04:00am 8.7 3.8 -3.2 43 4.4 NNW 13 15 7 8 1009.6 1009.6 0.0
27/03:30am 9.7 4.9 -2.9 41 4.7 NNW 13 15 7 8 1009.6 1009.6 0.0
27/03:00am 9.6 5.3 -2.0 44 4.4 NNW 11 13 6 7 1010.0 1010.0 0.0
27/02:30am 9.5 4.7 -2.4 43 4.5 N 13 13 7 7 1010.4 1010.4 0.0
27/02:00am 10.8 6.0 -2.6 39 5.1 N 13 13 7 7 1010.9 1010.9 0.0
27/01:30am 11.4 6.6 -2.8 37 5.4 NNW 13 15 7 8 1011.4 1011.3 0.0
27/01:00am 12.4 7.2 -3.0 34 5.9 N 15 17 8 9 1011.5 1011.4 0.0
27/12:30am 12.4 7.9 -3.0 34 5.9 N 11 13 6 7 1011.9 1011.8 0.0
27/12:00am 13.4 8.2 -2.9 32 6.4 N 15 17 8 9 1012.2 1012.1 0.0
 
Date/Time
CDT
Temp
°C
App
Temp
°C
Dew
Point
°C
Rel
Hum
%
Delta-T
°C
Wind Press
QNH
hPa
Press
MSL
hPa
Rain since
9am
mm
Dir  Spd
km/h
Gust
km/h
Spd
kts
Gust
kts
26/11:30pm 13.0 8.2 -2.5 34 6.1 N 13 13 7 7 1012.8 1012.7 0.0
26/11:00pm 10.5 5.8 -1.5 43 4.7 N 13 15 7 8 1012.9 1012.8 0.0
26/10:30pm 14.1 9.8 -1.9 33 6.4 NNW 11 13 6 7 1013.1 1013.0 0.0
26/10:00pm 11.7 8.1 -2.1 38 5.4 NW 7 11 4 6 1013.2 1013.1 0.0
26/09:30pm 16.0 12.0 -2.0 29 7.4 NNW 9 13 5 7 1013.0 1012.9 0.0
26/09:00pm 17.1 12.8 -2.0 27 7.9 N 11 11 6 6 1012.8 1012.7 0.0
26/08:30pm 19.3 14.8 -2.9 22 9.2 NE 11 13 6 7 1012.6 1012.5 0.0
26/08:00pm 18.9 13.7 -2.7 23 9.0 NE 15 17 8 9 1012.3 1012.2 0.0
26/07:30pm 22.3 17.3 -3.9 17 11.0 NE 13 15 7 8 1012.3 1012.2 0.0
26/07:00pm 26.5 21.0 -5.2 12 13.4 NNE 15 19 8 10 1012.3 1012.2 0.0
26/06:30pm 28.3 22.0 -6.2 10 14.6 NNE 19 24 10 13 1012.3 1012.2 0.0
26/06:00pm 29.0 22.1 -5.7 10 14.9 N 22 32 12 17 1012.3 1012.2 0.0
26/05:30pm 29.3 22.5 -5.4 10 15.0 NNE 22 32 12 17 1012.2 1012.1 0.0
26/05:00pm 29.7 22.8 -6.5 9 15.4 NNE 22 30 12 16 1012.2 1012.1 0.0
26/04:30pm 29.5 22.7 -5.3 10 15.1 NNE 22 33 12 18 1012.7 1012.6 0.0
26/04:00pm 29.5 23.4 -4.0 11 14.9 NNE 19 35 10 19 1012.8 1012.7 0.0
26/03:30pm 29.3 23.0 -4.2 11 14.8 NNE 20 35 11 19 1013.1 1013.0 0.0
26/03:00pm 29.2 22.5 -4.3 11 14.8 NNE 22 35 12 19 1013.6 1013.5 0.0
26/02:30pm 29.7 23.4 -3.9 11 15.0 NNE 20 33 11 18 1013.9 1013.8 0.0
26/02:00pm 28.3 22.0 -3.8 12 14.2 NNE 20 28 11 15 1014.7 1014.6 0.0
26/01:30pm 28.2 22.0 -2.8 13 13.9 NNE 20 30 11 16 1015.0 1014.9 0.0
26/01:00pm 26.7 20.7 -3.0 14 13.1 N 19 30 10 16 1015.7 1015.6 0.0
26/12:30pm 26.3 20.2 -2.4 15 12.8 NNE 20 32 11 17 1016.0 1015.9 0.0
26/12:00pm 25.2 17.7 -1.6 17 12.0 NNE 28 35 15 19 1016.6 1016.5 0.0
26/11:30am 24.6 17.5 -1.3 18 11.6 NNE 26 39 14 21 1017.1 1017.0 0.0
26/11:00am 22.5 15.2 -0.3 22 10.2 NNE 28 39 15 21 1017.5 1017.4 0.0
26/10:30am 21.2 15.2 1.0 26 9.2 NNE 22 33 12 18 1018.0 1017.9 0.0
26/10:00am 18.5 12.9 1.5 32 7.7 NNE 20 28 11 15 1018.2 1018.1 0.0
26/09:30am 16.3 11.1 3.7 43 5.8 NNE 20 26 11 14 1018.6 1018.5 0.0
26/09:00am 15.1 9.3 4.2 48 5.0 NNE 24 30 13 16 1018.8 1018.7 0.0
26/08:55am 14.3 8.0 3.7 49 4.8 NE 26 30 14 16 1018.8 1018.7 0.0
26/08:36am 13.6 7.8 4.2 53 4.3 NNE 24 33 13 18 1018.9 1018.8 0.0
26/08:30am 13.4 7.9 3.8 52 4.3 NNE 22 30 12 16 1018.9 1018.8 0.0
26/08:00am 11.4 8.2 5.1 65 2.9 NNE 11 17 6 9 1019.1 1019.0 0.0
26/07:30am 8.2 6.1 5.8 85 1.1 N 6 13 3 7 1019.1 1019.0 0.0
26/07:00am 5.7 3.0 3.9 88 0.8 NNW 7 9 4 5 1019.2 1019.1 0.0
26/06:30am 5.3 1.4 3.6 89 0.7 N 13 17 7 9 1018.9 1018.8 0.0
26/06:00am 6.3 1.8 4.3 87 0.9 NNE 17 20 9 11 1018.7 1018.6 0.0
26/05:30am 5.8 1.6 3.8 87 0.8 NNW 15 17 8 9 1018.8 1018.7 0.0
26/05:00am 5.0 1.6 4.1 94 0.4 NNW 11 13 6 7 1018.7 1018.6 0.0
26/04:30am 2.9 -0.3 0.6 85 0.9 NNW 7 9 4 5 1018.7 1018.6 0.0
26/04:00am 5.9 2.8 3.4 84 1.0 N 9 11 5 6 1018.7 1018.6 0.0
26/03:30am 6.2 3.4 5.3 94 0.4 N 9 11 5 6 1018.6 1018.5 0.0
26/03:00am 3.4 0.7 2.7 95 0.3 NNW 6 7 3 4 1018.7 1018.6 0.0
26/02:30am 4.5 3.2 3.9 96 0.3 CALM 0 0 0 0 1018.9 1018.8 0.0
26/02:00am 4.6 2.5 3.7 94 0.4 W 4 9 2 5 1019.1 1019.0 0.0
26/01:30am 6.1 3.9 5.4 95 0.3 W 6 9 3 5 1019.3 1019.2 0.0
26/01:00am 5.7 3.7 4.5 92 0.5 W 4 9 2 5 1019.6 1019.5 0.0
26/12:30am 6.0 3.5 5.0 93 0.4 W 7 9 4 5 1019.9 1019.8 0.0
26/12:00am 7.3 4.6 5.8 90 0.7 W 9 9 5 5 1020.1 1020.0 0.0
 
Date/Time
CDT
Temp
°C
App
Temp
°C
Dew
Point
°C
Rel
Hum
%
Delta-T
°C
Wind Press
QNH
hPa
Press
MSL
hPa
Rain since
9am
mm
Dir  Spd
km/h
Gust
km/h
Spd
kts
Gust
kts
25/11:30pm 9.3 6.6 7.4 88 0.9 WSW 11 13 6 7 1020.1 1020.0 0.0
25/11:00pm 9.2 6.2 7.5 89 0.8 WSW 13 15 7 8 1020.2 1020.1 0.0
25/10:30pm 9.7 6.3 7.6 87 1.0 WSW 15 17 8 9 1020.4 1020.4 0.0
25/10:00pm 10.2 6.5 7.8 85 1.2 WSW 17 17 9 9 1020.5 1020.5 0.0
25/09:30pm 10.0 6.9 7.1 82 1.4 SW 13 15 7 8 1020.3 1020.2 0.0
25/09:00pm 11.6 8.3 7.9 78 1.8 WSW 15 17 8 9 1020.2 1020.1 0.0
25/08:30pm 12.0 8.9 7.3 73 2.3 SW 13 15 7 8 1019.7 1019.6 0.0
25/08:00pm 13.4 9.9 7.0 65 3.1 SSW 15 19 8 10 1019.2 1019.1 0.0
25/07:30pm 15.8 12.1 6.5 54 4.5 S 15 20 8 11 1018.9 1018.8 0.0
25/07:00pm 17.8 13.0 5.4 44 6.0 S 20 28 11 15 1018.7 1018.6 0.0
25/06:30pm 19.5 14.1 4.4 37 7.2 S 22 32 12 17 1018.3 1018.2 0.0
25/06:00pm 21.3 17.8 -1.3 22 9.8 SSE 7 13 4 7 1018.3 1018.2 0.0
25/05:30pm 21.5 17.3 -1.1 22 9.9 SE 11 17 6 9 1018.4 1018.3 0.0
25/05:00pm 21.6 17.5 -0.4 23 9.8 SE 11 17 6 9 1018.6 1018.5 0.0
25/04:30pm 21.6 17.7 -1.6 21 10.1 ESE 9 17 5 9 1018.8 1018.7 0.0
25/04:00pm 22.0 17.9 -0.1 23 9.9 ENE 11 17 6 9 1019.2 1019.1 0.0
25/03:30pm 21.6 17.6 0.8 25 9.4 E 11 17 6 9 1019.4 1019.3 0.0
25/03:00pm 21.2 17.7 1.5 27 9.0 NE 9 15 5 8 1019.9 1019.8 0.0
25/02:30pm 20.3 16.9 1.7 29 8.5 ESE 9 19 5 10 1020.5 1020.5 0.0
25/02:00pm 19.9 15.7 1.8 30 8.3 ENE 13 22 7 12 1021.0 1021.0 0.0
25/01:30pm 19.3 15.2 2.2 32 7.8 NNE 13 26 7 14 1021.8 1021.8 0.0
25/01:00pm 18.4 15.1 2.3 34 7.4 SE 9 15 5 8 1022.0 1022.0 0.0
25/12:30pm 17.3 13.1 1.7 35 7.0 ENE 13 20 7 11 1022.8 1022.8 0.0
25/12:00pm 16.8 13.6 2.8 39 6.4 ENE 9 17 5 9 1023.5 1023.5 0.0
25/11:30am 15.8 11.8 2.9 42 5.8 ENE 13 20 7 11 1024.0 1024.0 0.0
25/11:00am 15.7 11.9 4.1 46 5.4 ENE 13 19 7 10 1024.3 1024.3 0.0
25/10:30am 14.3 10.7 3.2 47 5.0 NE 11 15 6 8 1024.9 1024.9 0.0
25/10:00am 14.1 10.4 4.7 53 4.4 ENE 13 20 7 11 1025.2 1025.2 0.0
25/09:30am 13.4 9.8 4.8 56 4.0 ENE 13 22 7 12 1025.4 1025.4 0.0
25/09:00am 11.4 8.6 5.3 66 2.8 ENE 9 15 5 8 1025.8 1025.8 0.0
25/08:30am 10.8 8.6 6.4 74 2.1 ENE 7 13 4 7 1025.6 1025.6 0.0
25/08:00am 8.6 7.6 5.7 82 1.3 CALM 0 0 0 0 1025.4 1025.4 0.0
25/07:30am 6.3 5.4 6.2 99 0.0 CALM 0 0 0 0 1025.3 1025.3 0.0

Other formats

Comma delimited format used in spreadsheet applications
http://www.bom.gov.au/fwo/IDS60801/IDS60801.95818.axf

JavaScript Object Notation format (JSON) in row-major order
http://www.bom.gov.au/fwo/IDS60801/IDS60801.95818.json

Data quality

Most of these data are generated automatically and are frequently updated. Quality checks on data are not normally performed. It is possible for incorrect values to appear. Refer to information at About Latest Weather Observations and please check the disclaimer before using these data.